Terminal Aerodrome Forecast
Issued by NWS Omaha/Valley, NE

Home | Current Version | Previous Version | Graphics & Text | Print | Product List | Glossary On
Versions: 1 2 3 4 5 6 7 8 9 10 11 12 13 14 15 16 17 18
000
FTUS43 KOAX 201120
TAFOFK
TAF
KOFK 201120Z 2012/2112 18015G22KT P6SM FEW200 WS020/20045KT
     FM201500 18016G33KT P6SM SCT250
     FM210000 17017G32KT P6SM BKN100 PROB30 2106/2111 4SM -SHRA
      OVC025
     FM211100 18017G25KT P6SM OVC020=

USA.gov is the U.S. government's official web portal to all federal, state and local government web resources and services.